createdAt,value
2024-03-23T00:00:03.158Z,1011.1
2024-03-23T00:05:03.750Z,1010.88
2024-03-23T00:10:03.704Z,1010.97
2024-03-23T00:15:03.509Z,1010.87
2024-03-23T00:20:03.087Z,1010.81
2024-03-23T00:25:03.742Z,1010.78
2024-03-23T00:30:03.420Z,1010.6
2024-03-23T00:35:03.183Z,1010.71
2024-03-23T00:40:02.872Z,1010.63
2024-03-23T00:45:03.570Z,1010.55
2024-03-23T00:50:03.272Z,1010.6
2024-03-23T00:55:03.468Z,1010.49
2024-03-23T01:00:03.673Z,1010.42
2024-03-23T01:05:03.332Z,1010.32
2024-03-23T01:10:03.100Z,1010.36
2024-03-23T01:15:03.865Z,1010.35
2024-03-23T01:20:08.618Z,1010.29
2024-03-23T01:25:03.743Z,1010.21
2024-03-23T01:30:03.219Z,1010.17
2024-03-23T01:35:02.921Z,1010.09
2024-03-23T01:40:03.719Z,1010.23
2024-03-23T01:45:03.413Z,1009.97
2024-03-23T01:50:03.019Z,1009.94
2024-03-23T01:55:03.647Z,1009.87
2024-03-23T02:00:03.772Z,1009.84
2024-03-23T02:05:03.487Z,1009.92
2024-03-23T02:10:03.183Z,1009.71
2024-03-23T02:15:03.659Z,1009.67
2024-03-23T02:20:03.272Z,1009.49
2024-03-23T02:25:03.273Z,1009.4
2024-03-23T02:30:03.005Z,1009.32
2024-03-23T02:35:03.694Z,1009.33
2024-03-23T02:40:03.715Z,1009.24
2024-03-23T02:45:03.140Z,1009.23
2024-03-23T02:50:03.169Z,1009.02
2024-03-23T02:55:04.519Z,1008.79
2024-03-23T03:00:03.479Z,1008.64
2024-03-23T03:05:03.101Z,1008.53
2024-03-23T03:10:02.846Z,1008.43
2024-03-23T03:15:03.544Z,1008.54
2024-03-23T03:20:03.299Z,1008.72
2024-03-23T03:25:03.020Z,1008.83
2024-03-23T03:30:02.920Z,1008.72
2024-03-23T03:35:03.631Z,1008.68
2024-03-23T03:40:03.349Z,1008.67
2024-03-23T03:45:03.108Z,1008.64
2024-03-23T03:50:03.711Z,1008.51
2024-03-23T03:55:03.724Z,1008.34
2024-03-23T04:00:03.382Z,1008.13
2024-03-23T04:05:03.349Z,1008.28
2024-03-23T04:10:03.189Z,1008.55
2024-03-23T04:15:02.989Z,1008.43
2024-03-23T04:20:03.768Z,1008.39
2024-03-23T04:25:03.385Z,1008.34
2024-03-23T04:30:03.133Z,1007.28
2024-03-23T04:35:03.774Z,1007.77
2024-03-23T04:40:03.517Z,1007.96
2024-03-23T04:45:03.300Z,1007.93
2024-03-23T04:50:02.933Z,1007.84
2024-03-23T04:55:04.217Z,1007.73
2024-03-23T05:00:03.456Z,1007.68
2024-03-23T05:05:03.248Z,1007.6
2024-03-23T05:10:03.014Z,1007.47
2024-03-23T05:15:03.719Z,1007.24
2024-03-23T05:20:03.504Z,1006.8
2024-03-23T05:25:03.212Z,1006.6
2024-03-23T05:30:03.150Z,1006.7
2024-03-23T05:35:03.773Z,1006.61
2024-03-23T05:40:03.470Z,1006.66
2024-03-23T05:45:03.113Z,1006.59
2024-03-23T05:50:02.783Z,1006.24
2024-03-23T05:55:04.045Z,1006.22
2024-03-23T06:00:03.408Z,1006.22
2024-03-23T06:05:03.068Z,1006.25
2024-03-23T06:10:03.754Z,1006.14
2024-03-23T06:15:03.559Z,1006.21
2024-03-23T06:20:03.702Z,1006.13
2024-03-23T06:25:03.180Z,1006.12
2024-03-23T06:30:03.832Z,1006.17
2024-03-23T06:35:03.533Z,1006.26
2024-03-23T06:40:03.285Z,1006.14
2024-03-23T06:45:03.008Z,1006.09
2024-03-23T06:50:03.811Z,1005.85
2024-03-23T06:55:03.866Z,1005.79
2024-03-23T07:00:03.235Z,1005.82
2024-03-23T07:05:03.793Z,1005.99
2024-03-23T07:10:03.522Z,1005.87
2024-03-23T07:15:03.284Z,1005.77
2024-03-23T07:20:02.989Z,1005.85
2024-03-23T07:25:03.588Z,1005.81
2024-03-23T07:30:03.367Z,1005.75
2024-03-23T07:35:03.071Z,1005.7
2024-03-23T07:40:03.741Z,1005.83
2024-03-23T07:45:08.988Z,1005.36
2024-03-23T07:50:02.896Z,1005.62
2024-03-23T07:55:03.630Z,1005.52
2024-03-23T08:05:03.090Z,1005.6
2024-03-23T08:10:03.014Z,1005.48
2024-03-23T08:15:03.666Z,1005.5
2024-03-23T08:20:03.459Z,1005.59
2024-03-23T08:25:03.075Z,1005.61
2024-03-23T08:30:03.839Z,1005.53
2024-03-23T08:35:03.596Z,1005.64
2024-03-23T08:40:03.339Z,1005.81
2024-03-23T08:45:02.940Z,1006
2024-03-23T08:50:03.653Z,1006.03
2024-03-23T08:55:03.768Z,1006.27
2024-03-23T09:00:03.355Z,1006.38
2024-03-23T09:05:02.895Z,1006.55
2024-03-23T09:15:03.401Z,1006.64
2024-03-23T09:20:03.286Z,1006.74
2024-03-23T09:25:02.949Z,1006.78
2024-03-23T09:30:03.792Z,1006.95
2024-03-23T09:35:03.594Z,1007.03
2024-03-23T09:40:03.453Z,1007.18
2024-03-23T09:45:03.114Z,1007.19
2024-03-23T09:50:02.849Z,1007.18
2024-03-23T09:55:03.799Z,1007.17
2024-03-23T10:00:03.718Z,1007.29
2024-03-23T10:05:03.356Z,1007.38
2024-03-23T10:10:03.190Z,1007.38
2024-03-23T10:15:03.847Z,1007.45
2024-03-23T10:20:03.577Z,1007.62
2024-03-23T10:25:03.475Z,1007.85
2024-03-23T10:30:03.111Z,1007.75
2024-03-23T10:35:03.717Z,1007.83
2024-03-23T10:40:03.486Z,1007.82
2024-03-23T10:45:03.149Z,1007.94
2024-03-23T10:50:02.923Z,1008.22
2024-03-23T10:55:04.010Z,1008.27
2024-03-23T11:00:03.464Z,1008.45
2024-03-23T11:05:03.073Z,1008.57
2024-03-23T11:10:02.900Z,1008.68
2024-03-23T11:15:03.740Z,1008.95
2024-03-23T11:20:03.385Z,1008.93
2024-03-23T11:30:02.934Z,1009.07
2024-03-23T11:35:03.527Z,1008.81
2024-03-23T11:40:03.419Z,1008.92
2024-03-23T11:45:03.358Z,1008.9
2024-03-23T11:50:02.973Z,1008.85
2024-03-23T11:55:04.162Z,1008.82
2024-03-23T12:00:03.477Z,1008.77
2024-03-23T12:05:03.372Z,1008.79
2024-03-23T12:10:03.104Z,1008.69
2024-03-23T12:15:03.760Z,1008.62
2024-03-23T12:20:03.584Z,1008.6
2024-03-23T12:25:03.170Z,1008.67
2024-03-23T12:30:02.909Z,1008.66
2024-03-23T12:35:03.679Z,1008.66
2024-03-23T12:40:03.321Z,1008.67
2024-03-23T12:45:03.093Z,1008.68
2024-03-23T12:50:03.671Z,1008.59
2024-03-23T12:55:03.888Z,1008.73
2024-03-23T13:00:03.309Z,1008.63
2024-03-23T13:05:03.026Z,1008.59
2024-03-23T13:10:03.894Z,1008.69
2024-03-23T13:15:03.569Z,1008.61
2024-03-23T13:20:03.272Z,1008.61
2024-03-23T13:25:03.069Z,1008.62
2024-03-23T13:30:03.021Z,1008.61
2024-03-23T13:35:03.739Z,1008.62
2024-03-23T13:40:03.474Z,1008.52
2024-03-23T13:45:03.141Z,1008.54
2024-03-23T13:50:03.824Z,1008.6
2024-03-23T13:55:04.309Z,1008.59
2024-03-23T14:00:03.372Z,1008.55
2024-03-23T14:05:03.062Z,1008.52
2024-03-23T14:10:03.699Z,1008.65
2024-03-23T14:15:03.479Z,1008.66
2024-03-23T14:20:12.799Z,1008.68
2024-03-23T14:25:03.722Z,1008.75
2024-03-23T14:30:05.635Z,1008.8
2024-03-23T14:35:03.032Z,1008.88
2024-03-23T14:40:03.684Z,1008.9
2024-03-23T14:45:03.368Z,1008.8
2024-03-23T14:50:03.084Z,1008.77
2024-03-23T14:55:04.078Z,1008.7
2024-03-23T15:00:03.486Z,1008.73
2024-03-23T15:05:07.657Z,1008.73
2024-03-23T15:10:03.575Z,1008.7
2024-03-23T15:15:03.358Z,1008.88
2024-03-23T15:20:03.084Z,1008.93
2024-03-23T15:25:03.784Z,1009.14
2024-03-23T15:30:03.605Z,1009.17
2024-03-23T15:40:03.019Z,1008.87
2024-03-23T15:45:09.538Z,1008.86
2024-03-23T15:50:03.552Z,1008.71
2024-03-23T15:55:03.368Z,1008.72
2024-03-23T16:00:03.775Z,1008.61
2024-03-23T16:05:03.570Z,1008.54
2024-03-23T16:10:03.398Z,1008.54
2024-03-23T16:15:02.929Z,1008.46
2024-03-23T16:20:03.808Z,1008.45
2024-03-23T16:25:03.511Z,1008.6
2024-03-23T16:30:03.103Z,1008.29
2024-03-23T16:35:03.764Z,1008.08
2024-03-23T16:40:02.940Z,1008.3
2024-03-23T16:45:03.841Z,1008.27
2024-03-23T16:50:03.617Z,1008.18
2024-03-23T16:55:03.504Z,1008.16
2024-03-23T17:00:02.949Z,1008.24
2024-03-23T17:05:03.706Z,1008.3
2024-03-23T17:10:03.642Z,1008.41
2024-03-23T17:15:03.318Z,1008.47
2024-03-23T17:20:03.348Z,1008.39
2024-03-23T17:25:03.180Z,1008.45
2024-03-23T17:30:03.936Z,1008.53
2024-03-23T17:35:03.564Z,1008.5
2024-03-23T17:40:03.358Z,1008.52
2024-03-23T17:45:03.072Z,1008.62
2024-03-23T17:50:03.858Z,1008.76
2024-03-23T17:55:04.135Z,1008.89
2024-03-23T18:00:03.184Z,1009.02
2024-03-23T18:05:03.173Z,1009.01
2024-03-23T18:10:03.844Z,1008.92
2024-03-23T18:20:03.375Z,1008.77
2024-03-23T18:30:03.023Z,1008.86
2024-03-23T18:35:02.874Z,1008.95
2024-03-23T18:40:03.522Z,1008.9
2024-03-23T18:45:03.280Z,1008.79
2024-03-23T18:50:02.984Z,1008.87
2024-03-23T18:55:03.756Z,1008.84
2024-03-23T19:00:03.472Z,1008.89
2024-03-23T19:05:03.036Z,1008.84
2024-03-23T19:10:03.714Z,1008.8
2024-03-23T19:15:03.519Z,1008.82
2024-03-23T19:20:03.532Z,1008.83
2024-03-23T19:30:02.979Z,1008.89
2024-03-23T19:35:03.639Z,1008.82
2024-03-23T19:40:03.661Z,1008.9
2024-03-23T19:45:03.359Z,1008.91
2024-03-23T19:50:03.067Z,1009.04
2024-03-23T19:55:04.579Z,1008.97
2024-03-23T20:00:03.560Z,1009.09
2024-03-23T20:05:03.207Z,1008.99
2024-03-23T20:10:03.078Z,1008.88
2024-03-23T20:15:02.996Z,1008.73
2024-03-23T20:20:02.857Z,1008.83
2024-03-23T20:25:03.613Z,1008.85
2024-03-23T20:30:03.345Z,1008.84
2024-03-23T20:35:03.114Z,1008.89
2024-03-23T20:40:03.229Z,1008.93
2024-03-23T20:45:03.550Z,1008.85
2024-03-23T20:50:03.169Z,1008.97
2024-03-23T20:55:03.345Z,1008.97
2024-03-23T21:00:03.598Z,1008.83
2024-03-23T21:05:03.289Z,1008.9
2024-03-23T21:10:03.201Z,1008.86
2024-03-23T21:15:09.670Z,1008.84
2024-03-23T21:20:03.720Z,1008.85
2024-03-23T21:25:04.827Z,1008.78
2024-03-23T21:30:03.305Z,1008.67
2024-03-23T21:35:02.883Z,1008.7
2024-03-23T21:40:03.761Z,1008.66
2024-03-23T21:45:08.075Z,1008.68
2024-03-23T21:50:02.883Z,1008.56
2024-03-23T21:55:04.071Z,1008.59
2024-03-23T22:00:03.318Z,1008.51
2024-03-23T22:05:03.029Z,1008.47
2024-03-23T22:10:03.821Z,1008.4
2024-03-23T22:15:03.476Z,1008.44
2024-03-23T22:20:03.181Z,1008.33
2024-03-23T22:25:02.974Z,1008.33
2024-03-23T22:30:03.557Z,1008.27
2024-03-23T22:35:03.231Z,1008.11
2024-03-23T22:40:03.036Z,1008.15
2024-03-23T22:45:03.625Z,1008.13
2024-03-23T22:50:08.385Z,1008.08
2024-03-23T22:55:03.888Z,1008.06
2024-03-23T23:00:03.170Z,1008.04
2024-03-23T23:05:02.799Z,1008.06
2024-03-23T23:10:03.643Z,1007.99
2024-03-23T23:15:03.412Z,1008.01
2024-03-23T23:25:02.929Z,1007.98
2024-03-23T23:30:03.568Z,1008.03
2024-03-23T23:35:03.238Z,1007.98
2024-03-23T23:40:03.025Z,1007.92
2024-03-23T23:45:03.638Z,1007.83
2024-03-23T23:50:03.428Z,1007.72
2024-03-23T23:55:03.198Z,1007.65
